Time;durP1;ratioP1;P1;durP2;ratioP2;P2;SDS_P1;SDS_P2;PMS_P1;PMS_P2;Temp;Humidity;BMP_temperature;BMP_pressure;BME280_temperature;BME280_humidity;BME280_pressure;Samples;Min_cycle;Max_cycle;Signal;HPM_P1;HPM_P2
2021/05/17 00:01:13;;;;;;;0.52;0.40;;;10.40;99.90;;;;;;5013950;28;20456;-72
2021/05/17 00:03:41;;;;;;;0.40;0.40;;;10.40;99.90;;;;;;5013419;28;20061;-72
2021/05/17 00:06:08;;;;;;;0.60;0.38;;;10.30;99.90;;;;;;5014403;28;20025;-72
2021/05/17 00:08:34;;;;;;;1.10;0.50;;;10.20;99.90;;;;;;5016972;28;20021;-72
2021/05/17 00:10:59;;;;;;;0.52;0.52;;;10.20;99.90;;;;;;5033723;28;20094;-72
2021/05/17 00:13:25;;;;;;;3.30;0.50;;;10.20;99.90;;;;;;5032616;28;20079;-71
2021/05/17 00:15:51;;;;;;;3.30;0.50;;;10.20;99.90;;;;;;5033958;28;20021;-72
2021/05/17 00:18:17;;;;;;;1.42;0.43;;;10.30;99.90;;;;;;5033490;28;20407;-73
2021/05/17 00:20:43;;;;;;;2.25;0.30;;;10.40;99.90;;;;;;5032141;28;20025;-71
2021/05/17 00:23:09;;;;;;;0.98;0.50;;;10.30;99.90;;;;;;5032612;28;20033;-71
2021/05/17 00:25:35;;;;;;;1.33;0.30;;;10.20;99.90;;;;;;5033439;28;20108;-72
2021/05/17 00:28:01;;;;;;;3.17;0.50;;;10.20;99.90;;;;;;5033300;28;20025;-72
2021/05/17 00:30:30;;;;;;;0.47;0.40;;;10.30;99.90;;;;;;5033776;28;20017;-72
2021/05/17 00:32:58;;;;;;;3.00;0.60;;;10.40;99.90;;;;;;5033650;28;20044;-73
2021/05/17 00:35:24;;;;;;;2.00;0.60;;;10.30;99.90;;;;;;5031390;28;20052;-72
2021/05/17 00:37:50;;;;;;;0.85;0.50;;;10.40;99.90;;;;;;5033482;28;20030;-71
2021/05/17 00:40:18;;;;;;;0.88;0.30;;;10.30;99.90;;;;;;5033659;28;20037;-73
2021/05/17 00:42:44;;;;;;;0.68;0.38;;;10.30;99.90;;;;;;5032661;28;20026;-72
2021/05/17 00:45:13;;;;;;;1.38;0.50;;;10.40;99.90;;;;;;5032964;28;20022;-72
2021/05/17 00:47:48;;;;;;;1.80;0.43;;;10.30;99.90;;;;;;5046310;28;20089;-72
2021/05/17 00:50:17;;;;;;;1.13;0.40;;;10.30;99.90;;;;;;5034438;28;20032;-72
2021/05/17 00:52:44;;;;;;;1.08;0.30;;;10.30;99.90;;;;;;5032635;28;20507;-72
2021/05/17 00:55:10;;;;;;;0.93;0.30;;;10.20;99.90;;;;;;5033122;28;20083;-72
2021/05/17 00:57:36;;;;;;;2.85;0.40;;;10.20;99.90;;;;;;5032602;28;20030;-72
2021/05/17 01:00:08;;;;;;;1.00;0.45;;;10.10;99.90;;;;;;5032712;28;20052;-72
2021/05/17 01:02:34;;;;;;;0.88;0.57;;;10.00;99.90;;;;;;5032605;28;20053;-73
2021/05/17 01:05:00;;;;;;;0.45;0.30;;;10.10;99.90;;;;;;5031957;28;20083;-72
2021/05/17 01:07:29;;;;;;;0.65;0.30;;;10.10;99.90;;;;;;5032304;28;20033;-72
2021/05/17 01:09:59;;;;;;;0.70;0.50;;;10.10;99.90;;;;;;5032428;28;20092;-72
2021/05/17 01:12:25;;;;;;;1.27;0.38;;;10.20;99.90;;;;;;5032241;28;20073;-72
2021/05/17 01:14:57;;;;;;;0.70;0.40;;;10.20;99.90;;;;;;5031896;28;20108;-72
2021/05/17 01:17:28;;;;;;;0.63;0.40;;;10.20;99.90;;;;;;5032475;28;20029;-72
2021/05/17 01:20:15;;;;;;;1.85;0.47;;;10.30;99.90;;;;;;5032352;28;20041;-72
2021/05/17 01:25:19;;;;;;;1.05;0.40;;;10.10;99.90;;;;;;5032413;28;20064;-72
2021/05/17 01:27:45;;;;;;;2.13;0.40;;;10.10;99.90;;;;;;5036086;28;20056;-72
2021/05/17 01:30:12;;;;;;;1.13;0.35;;;10.00;99.90;;;;;;5033908;28;20119;-72
2021/05/17 01:32:39;;;;;;;1.75;0.30;;;10.00;99.90;;;;;;5031938;28;20506;-72
2021/05/17 01:35:05;;;;;;;0.77;0.25;;;10.00;99.90;;;;;;5032320;28;20543;-72
2021/05/17 01:37:33;;;;;;;0.93;0.22;;;10.00;99.90;;;;;;5032631;28;20036;-72
2021/05/17 01:40:00;;;;;;;1.17;0.40;;;9.90;99.90;;;;;;5036917;28;20041;-72
2021/05/17 01:42:27;;;;;;;0.98;0.30;;;9.90;99.90;;;;;;5030454;28;20029;-72
2021/05/17 01:44:54;;;;;;;0.88;0.30;;;9.80;99.90;;;;;;5031025;28;20025;-72
2021/05/17 01:47:22;;;;;;;2.90;0.40;;;9.80;99.90;;;;;;5031575;28;20364;-71
2021/05/17 01:49:51;;;;;;;1.20;0.30;;;9.70;99.90;;;;;;5031892;28;20088;-71
2021/05/17 01:52:19;;;;;;;0.82;0.25;;;9.70;99.90;;;;;;5031766;28;20026;-73
2021/05/17 01:54:49;;;;;;;1.35;0.40;;;9.70;99.90;;;;;;5031007;28;20088;-72
2021/05/17 01:57:15;;;;;;;0.43;0.20;;;9.70;99.90;;;;;;5031301;28;20026;-71
2021/05/17 01:59:40;;;;;;;1.08;0.30;;;9.70;99.90;;;;;;5031530;28;20033;-71
2021/05/17 02:02:07;;;;;;;0.35;0.30;;;9.70;99.90;;;;;;5031778;28;20108;-72
2021/05/17 02:04:33;;;;;;;2.72;0.35;;;9.60;99.90;;;;;;5030808;28;20521;-72
2021/05/17 02:06:59;;;;;;;0.20;0.20;;;9.60;99.90;;;;;;5031410;28;20057;-73
2021/05/17 02:09:30;;;;;;;1.23;0.20;;;9.60;99.90;;;;;;5031472;28;20088;-72
2021/05/17 02:11:56;;;;;;;1.58;0.20;;;9.70;99.90;;;;;;5027949;28;20025;-74
2021/05/17 02:14:22;;;;;;;1.65;0.10;;;9.70;99.90;;;;;;5011685;28;20034;-75
2021/05/17 02:16:50;;;;;;;0.20;0.20;;;9.70;99.90;;;;;;5023054;28;20022;-76
2021/05/17 02:19:23;;;;;;;1.67;0.40;;;9.70;99.90;;;;;;5030047;28;20109;-74
2021/05/17 02:21:49;;;;;;;2.30;0.40;;;9.80;99.90;;;;;;5016037;28;20030;-74
2021/05/17 02:24:15;;;;;;;1.40;0.32;;;9.60;99.90;;;;;;5020206;28;20044;-75
2021/05/17 02:26:42;;;;;;;0.50;0.40;;;9.50;99.90;;;;;;5021145;28;20045;-74
2021/05/17 02:29:09;;;;;;;0.52;0.30;;;9.60;99.90;;;;;;5025506;28;20022;-76
2021/05/17 02:31:35;;;;;;;0.13;0.13;;;9.50;99.90;;;;;;5018388;28;20034;-74
2021/05/17 02:34:02;;;;;;;0.40;0.22;;;9.50;99.90;;;;;;5020572;28;20037;-76
2021/05/17 02:39:04;;;;;;;0.65;0.20;;;9.50;99.90;;;;;;5057665;28;20717;-76
2021/05/17 02:41:33;;;;;;;0.30;0.30;;;9.60;99.90;;;;;;5058784;28;20021;-75
2021/05/17 02:43:58;;;;;;;0.30;0.20;;;9.60;99.90;;;;;;5061394;28;20464;-75
2021/05/17 02:46:25;;;;;;;0.40;0.30;;;9.60;99.90;;;;;;5058094;28;20093;-76
2021/05/17 02:48:51;;;;;;;0.63;0.30;;;9.60;99.90;;;;;;5023387;28;20025;-76
2021/05/17 02:51:17;;;;;;;1.17;0.10;;;9.60;99.90;;;;;;5040612;28;20103;-76
2021/05/17 02:54:07;;;;;;;0.57;0.30;;;9.60;99.90;;;;;;5049806;28;20072;-75
2021/05/17 02:57:09;;;;;;;0.35;0.20;;;9.70;99.90;;;;;;5037586;28;20013;-75
2021/05/17 02:59:53;;;;;;;0.20;0.20;;;9.80;99.90;;;;;;5034686;28;20037;-74
2021/05/17 03:02:21;;;;;;;0.60;0.20;;;9.70;99.90;;;;;;5042218;28;20024;-74
2021/05/17 03:04:51;;;;;;;0.22;0.10;;;9.60;99.90;;;;;;5050096;28;20075;-74
2021/05/17 03:07:20;;;;;;;1.90;0.40;;;9.70;99.90;;;;;;5040464;28;20013;-75
2021/05/17 03:09:47;;;;;;;2.33;0.30;;;9.80;99.90;;;;;;5042802;28;20025;-74
2021/05/17 03:12:15;;;;;;;2.65;0.20;;;9.80;99.90;;;;;;5046005;28;20029;-75
2021/05/17 03:14:42;;;;;;;1.35;0.30;;;9.80;99.90;;;;;;5040138;28;20025;-76
2021/05/17 03:17:10;;;;;;;1.83;0.40;;;9.60;99.90;;;;;;5042085;28;20044;-75
2021/05/17 03:19:38;;;;;;;1.08;0.40;;;9.70;99.90;;;;;;5041201;28;20099;-74
2021/05/17 03:22:04;;;;;;;2.97;0.50;;;9.70;99.90;;;;;;5026990;28;20025;-73
2021/05/17 03:24:35;;;;;;;1.17;0.43;;;9.70;99.90;;;;;;5042634;28;20013;-76
2021/05/17 03:27:21;;;;;;;0.88;0.30;;;9.70;99.90;;;;;;5029127;28;20133;-76
2021/05/17 03:29:49;;;;;;;1.08;0.32;;;9.70;99.90;;;;;;5023831;28;20097;-75
2021/05/17 03:32:15;;;;;;;1.58;0.50;;;9.70;99.90;;;;;;5041719;28;20124;-74
2021/05/17 03:34:41;;;;;;;1.17;0.30;;;9.70;99.90;;;;;;5043428;28;20025;-74
2021/05/17 03:37:07;;;;;;;3.60;0.40;;;9.80;99.90;;;;;;5042618;28;20551;-73
2021/05/17 03:39:33;;;;;;;1.23;0.45;;;9.80;99.90;;;;;;5040265;28;20045;-76
2021/05/17 03:41:58;;;;;;;0.93;0.38;;;9.80;99.90;;;;;;5042518;28;20126;-76
2021/05/17 03:44:24;;;;;;;2.35;0.30;;;9.90;99.90;;;;;;5025551;28;20521;-74
2021/05/17 03:46:50;;;;;;;1.35;0.52;;;9.70;99.90;;;;;;5039765;28;20092;-75
2021/05/17 03:49:16;;;;;;;1.38;0.30;;;9.60;99.90;;;;;;5045946;28;20118;-75
2021/05/17 03:51:41;;;;;;;2.28;0.40;;;9.60;99.90;;;;;;5044563;28;20487;-77
2021/05/17 03:54:07;;;;;;;1.98;0.40;;;9.60;99.90;;;;;;5037480;28;20033;-75
2021/05/17 03:56:33;;;;;;;1.42;0.50;;;9.70;99.90;;;;;;5031152;28;20033;-76
2021/05/17 03:58:58;;;;;;;2.58;0.60;;;9.70;99.90;;;;;;5043975;28;20444;-74
2021/05/17 04:01:24;;;;;;;3.85;0.52;;;9.60;99.90;;;;;;5042184;28;20057;-74
2021/05/17 04:03:52;;;;;;;1.55;0.40;;;9.50;99.90;;;;;;5037925;28;20496;-75
2021/05/17 04:06:24;;;;;;;1.52;0.60;;;9.60;99.90;;;;;;5040959;28;20018;-74
2021/05/17 04:14:23;;;;;;;3.42;0.55;;;9.60;99.90;;;;;;5044748;28;20040;-74
2021/05/17 04:16:48;;;;;;;2.75;1.00;;;9.70;99.90;;;;;;5039560;28;20017;-74
2021/05/17 04:19:14;;;;;;;3.30;0.50;;;9.70;99.90;;;;;;5034590;28;20032;-76
2021/05/17 04:21:40;;;;;;;2.95;0.70;;;9.70;99.90;;;;;;5054013;28;20021;-74
2021/05/17 04:24:06;;;;;;;1.83;0.57;;;9.80;99.90;;;;;;5034479;28;20021;-75
2021/05/17 04:26:32;;;;;;;0.80;0.40;;;9.80;99.90;;;;;;5038519;28;20514;-74
2021/05/17 04:28:58;;;;;;;3.83;0.57;;;9.70;99.90;;;;;;5038011;28;20033;-76
2021/05/17 04:31:23;;;;;;;1.88;0.50;;;9.60;99.90;;;;;;5037443;28;20063;-73
2021/05/17 04:33:49;;;;;;;2.05;0.60;;;9.70;99.90;;;;;;5042602;28;20097;-74
2021/05/17 04:36:15;;;;;;;1.92;0.80;;;9.80;99.90;;;;;;5040754;28;20036;-75
2021/05/17 04:38:40;;;;;;;1.00;0.82;;;9.70;99.90;;;;;;5045909;28;20036;-74
2021/05/17 04:41:06;;;;;;;3.00;0.50;;;9.70;99.90;;;;;;5035771;28;20029;-72
2021/05/17 04:43:32;;;;;;;1.73;0.60;;;9.70;99.90;;;;;;5029058;28;20104;-72
2021/05/17 04:45:57;;;;;;;1.88;0.60;;;9.80;99.90;;;;;;5032882;28;20497;-71
2021/05/17 04:48:23;;;;;;;3.45;0.60;;;9.80;99.90;;;;;;5032331;28;20025;-71
2021/05/17 04:50:49;;;;;;;2.03;0.70;;;9.70;99.90;;;;;;5033895;28;20100;-72
2021/05/17 04:53:15;;;;;;;1.23;0.50;;;9.70;99.90;;;;;;5043169;28;20094;-72
2021/05/17 04:55:40;;;;;;;1.58;0.43;;;9.50;99.90;;;;;;5053000;28;20033;-74
2021/05/17 04:58:08;;;;;;;3.65;0.43;;;9.50;99.90;;;;;;5053098;28;20112;-72
2021/05/17 05:00:35;;;;;;;0.85;0.55;;;9.60;99.90;;;;;;5046557;28;20497;-75
2021/05/17 05:03:01;;;;;;;1.25;0.50;;;9.70;99.90;;;;;;5052058;28;20063;-76
2021/05/17 05:05:26;;;;;;;1.52;0.40;;;9.90;99.90;;;;;;5053030;28;20110;-76
2021/05/17 05:07:52;;;;;;;1.83;0.50;;;10.60;99.90;;;;;;5041900;28;20029;-75
2021/05/17 05:10:18;;;;;;;0.85;0.40;;;10.80;99.90;;;;;;5033260;28;20022;-76
2021/05/17 05:12:44;;;;;;;0.38;0.30;;;10.90;99.90;;;;;;5014434;28;20586;-73
2021/05/17 05:15:10;;;;;;;1.27;0.75;;;10.60;99.90;;;;;;5015443;28;20112;-73
2021/05/17 05:17:36;;;;;;;1.33;0.52;;;10.20;99.90;;;;;;5032721;28;20113;-73
2021/05/17 05:20:02;;;;;;;2.72;0.80;;;10.30;99.90;;;;;;5033079;28;20061;-72
2021/05/17 05:22:28;;;;;;;5.63;0.82;;;10.00;99.90;;;;;;5032414;28;20091;-75
2021/05/17 05:24:56;;;;;;;1.98;0.60;;;10.10;99.90;;;;;;5032384;28;20052;-73
2021/05/17 05:27:34;;;;;;;0.45;0.20;;;10.20;99.90;;;;;;5049731;28;20024;-71
2021/05/17 05:30:19;;;;;;;1.10;0.30;;;10.30;99.90;;;;;;5052012;28;20070;-74
2021/05/17 05:32:56;;;;;;;0.75;0.28;;;10.40;99.90;;;;;;5051557;28;20051;-73
2021/05/17 05:35:24;;;;;;;0.90;0.35;;;10.40;99.90;;;;;;5052266;28;20564;-72
2021/05/17 05:37:49;;;;;;;0.80;0.35;;;10.50;99.90;;;;;;5051556;28;20031;-71
2021/05/17 05:40:15;;;;;;;2.63;0.22;;;10.50;99.90;;;;;;5052104;28;20021;-73
2021/05/17 05:42:41;;;;;;;0.20;0.20;;;10.50;99.90;;;;;;5052678;28;20544;-73
2021/05/17 05:45:10;;;;;;;1.85;0.40;;;10.60;99.90;;;;;;5061269;28;20079;-73
2021/05/17 05:47:36;;;;;;;0.60;0.47;;;10.60;99.90;;;;;;5034936;28;20392;-72
2021/05/17 05:50:03;;;;;;;0.32;0.32;;;10.50;99.90;;;;;;5042736;28;20084;-73
2021/05/17 05:52:28;;;;;;;1.45;0.55;;;10.40;99.90;;;;;;5053386;28;20486;-71
2021/05/17 05:54:54;;;;;;;0.88;0.20;;;10.40;99.90;;;;;;5047084;28;20025;-74
2021/05/17 05:57:20;;;;;;;1.00;0.50;;;10.50;99.90;;;;;;5034388;28;20036;-71
2021/05/17 05:59:46;;;;;;;0.38;0.30;;;10.40;99.90;;;;;;5048044;28;20024;-72
2021/05/17 06:02:11;;;;;;;0.52;0.30;;;10.50;99.90;;;;;;5049954;28;20375;-71
2021/05/17 06:04:37;;;;;;;2.70;0.50;;;10.60;99.90;;;;;;5051685;28;20155;-72
2021/05/17 06:07:03;;;;;;;0.75;0.20;;;10.40;99.90;;;;;;5014044;28;20029;-72
2021/05/17 06:09:29;;;;;;;1.17;0.30;;;10.60;99.90;;;;;;5031181;28;20487;-73
2021/05/17 06:11:55;;;;;;;1.75;0.25;;;10.70;99.90;;;;;;5031926;28;20026;-72
2021/05/17 06:14:23;;;;;;;0.50;0.25;;;10.70;99.90;;;;;;5030335;28;20036;-73
2021/05/17 06:16:49;;;;;;;3.88;0.40;;;10.70;99.90;;;;;;5030416;28;20026;-71
2021/05/17 06:19:15;;;;;;;0.70;0.20;;;10.60;99.90;;;;;;5051417;28;20151;-71
2021/05/17 06:21:41;;;;;;;1.77;0.30;;;10.70;99.90;;;;;;5051193;28;20390;-70
2021/05/17 06:24:10;;;;;;;0.98;0.52;;;11.00;99.90;;;;;;5049772;28;20036;-70
2021/05/17 06:26:38;;;;;;;0.73;0.30;;;11.10;99.90;;;;;;5054802;28;20025;-72
2021/05/17 06:29:04;;;;;;;0.90;0.40;;;11.40;99.90;;;;;;5029872;28;20479;-73
2021/05/17 06:31:30;;;;;;;2.28;0.50;;;11.10;99.90;;;;;;5051590;28;20025;-71
2021/05/17 06:33:56;;;;;;;1.13;0.40;;;11.10;99.90;;;;;;5051386;28;20031;-72
2021/05/17 06:36:21;;;;;;;1.70;0.93;;;11.20;99.90;;;;;;5055689;28;20536;-72
2021/05/17 06:38:48;;;;;;;4.93;0.80;;;11.40;99.90;;;;;;5054854;28;20495;-71
2021/05/17 06:41:13;;;;;;;7.20;0.80;;;11.50;99.90;;;;;;5055514;28;20047;-72
2021/05/17 06:43:40;;;;;;;1.27;0.60;;;11.60;99.90;;;;;;5054461;28;20033;-72
2021/05/17 06:46:08;;;;;;;3.50;1.15;;;11.50;99.90;;;;;;5037903;28;20021;-71
2021/05/17 06:48:42;;;;;;;8.75;0.60;;;11.40;99.90;;;;;;5056283;28;20032;-71
2021/05/17 06:51:11;;;;;;;5.30;1.08;;;11.30;99.90;;;;;;5056202;28;20035;-71
2021/05/17 06:53:38;;;;;;;8.70;0.90;;;11.40;99.90;;;;;;5055732;28;20479;-72
2021/05/17 06:56:07;;;;;;;1.42;0.55;;;11.40;99.90;;;;;;5056524;28;20069;-71
2021/05/17 07:01:38;;;;;;;4.78;0.82;;;11.30;99.90;;;;;;4954611;29;20059;-70
2021/05/17 07:04:04;;;;;;;3.67;0.65;;;11.30;99.90;;;;;;4953558;29;20031;-71
2021/05/17 07:06:33;;;;;;;3.53;0.90;;;11.40;99.90;;;;;;5001497;28;20037;-70
2021/05/17 07:12:08;;;;;;;2.75;0.60;;;11.50;99.90;;;;;;5034876;28;20448;-71
2021/05/17 07:14:34;;;;;;;3.33;0.50;;;11.50;99.90;;;;;;5033888;28;20032;-70
2021/05/17 07:16:59;;;;;;;5.25;0.70;;;11.60;99.90;;;;;;5034592;28;20021;-71
2021/05/17 07:19:25;;;;;;;3.30;0.73;;;11.70;99.90;;;;;;5034725;28;20021;-72
2021/05/17 07:24:35;;;;;;;4.80;0.60;;;11.70;99.90;;;;;;5049891;28;20094;-73
2021/05/17 07:27:02;;;;;;;9.43;1.13;;;11.60;99.90;;;;;;5039019;28;20048;-73
2021/05/17 07:29:31;;;;;;;3.58;0.77;;;11.50;99.90;;;;;;5054082;28;20471;-73
2021/05/17 07:31:57;;;;;;;4.28;0.85;;;11.70;99.90;;;;;;5054906;28;20053;-72
2021/05/17 07:34:22;;;;;;;2.33;0.50;;;12.10;99.90;;;;;;5053872;28;20683;-72
2021/05/17 07:36:49;;;;;;;1.10;0.50;;;12.00;99.90;;;;;;5053836;28;20029;-71
2021/05/17 07:39:15;;;;;;;2.25;0.77;;;11.90;99.90;;;;;;5035940;28;20029;-71
2021/05/17 07:41:41;;;;;;;1.75;0.60;;;12.00;99.90;;;;;;5053558;28;20017;-74
2021/05/17 07:44:08;;;;;;;0.93;0.35;;;12.30;99.90;;;;;;5053124;28;20395;-71
2021/05/17 07:46:33;;;;;;;3.83;0.82;;;12.10;99.90;;;;;;5053653;28;20099;-72
2021/05/17 07:49:12;;;;;;;3.70;0.60;;;11.30;99.90;;;;;;5054577;28;20017;-71
2021/05/17 07:51:40;;;;;;;0.63;0.40;;;11.70;99.90;;;;;;5054115;28;20017;-72
2021/05/17 07:54:06;;;;;;;2.10;0.47;;;12.00;99.90;;;;;;5053891;28;20426;-72
2021/05/17 07:56:32;;;;;;;6.10;1.23;;;12.30;99.90;;;;;;5054453;28;20614;-72
2021/05/17 07:58:58;;;;;;;1.52;0.47;;;12.60;99.90;;;;;;5054210;28;20117;-69
2021/05/17 08:01:23;;;;;;;1.67;0.43;;;12.90;99.90;;;;;;5055258;28;20442;-72
2021/05/17 08:03:50;;;;;;;1.38;0.40;;;12.80;99.90;;;;;;5054363;28;20057;-75
2021/05/17 08:06:16;;;;;;;2.15;0.50;;;12.70;99.90;;;;;;5054005;28;20451;-71
2021/05/17 08:08:42;;;;;;;6.70;0.70;;;12.30;99.90;;;;;;5036854;28;20147;-72
2021/05/17 08:11:07;;;;;;;4.22;0.50;;;12.40;99.90;;;;;;5033661;28;20036;-70
2021/05/17 08:13:33;;;;;;;4.78;0.50;;;12.10;99.90;;;;;;5033364;28;20113;-72
2021/05/17 08:15:59;;;;;;;0.43;0.28;;;12.00;99.90;;;;;;5034119;28;20021;-71
2021/05/17 08:18:25;;;;;;;2.20;1.00;;;11.90;99.90;;;;;;5034732;28;20082;-80
2021/05/17 08:20:50;;;;;;;1.55;0.57;;;12.10;99.90;;;;;;5034376;28;20026;-77
2021/05/17 08:23:17;;;;;;;2.85;0.60;;;12.50;99.90;;;;;;5035784;28;20661;-77
2021/05/17 08:25:47;;;;;;;5.18;0.80;;;13.20;99.90;;;;;;5056216;28;20029;-78
2021/05/17 08:28:14;;;;;;;1.77;0.50;;;14.00;99.90;;;;;;5053547;28;20462;-71
2021/05/17 08:30:42;;;;;;;2.10;0.90;;;14.20;99.90;;;;;;5053142;28;20036;-73
2021/05/17 08:33:09;;;;;;;15.40;1.90;;;13.70;99.90;;;;;;5052571;28;20040;-74
2021/05/17 08:35:35;;;;;;;14.35;1.38;;;13.60;99.90;;;;;;5053570;28;20040;-73
2021/05/17 08:38:01;;;;;;;8.20;0.57;;;13.50;99.90;;;;;;5053430;28;20029;-74
2021/05/17 08:40:27;;;;;;;1.85;0.55;;;13.20;99.90;;;;;;5053649;28;20579;-72
2021/05/17 08:42:55;;;;;;;11.07;0.98;;;12.30;99.90;;;;;;5051976;28;20032;-73
2021/05/17 08:45:21;;;;;;;1.00;0.50;;;12.50;99.90;;;;;;5052287;28;20049;-74
2021/05/17 08:47:47;;;;;;;3.20;0.60;;;12.60;99.90;;;;;;5052941;28;20550;-73
2021/05/17 08:50:13;;;;;;;2.90;0.50;;;13.00;99.90;;;;;;5052854;28;20103;-71
2021/05/17 08:52:40;;;;;;;2.80;0.55;;;13.10;99.90;;;;;;5052125;28;20033;-68
2021/05/17 08:55:08;;;;;;;2.88;0.70;;;12.90;99.90;;;;;;5053265;28;20366;-76
2021/05/17 08:57:34;;;;;;;12.00;0.90;;;12.80;99.90;;;;;;5052688;28;20103;-72
2021/05/17 08:59:59;;;;;;;3.80;0.50;;;13.00;99.90;;;;;;5061112;28;20048;-74
2021/05/17 09:02:28;;;;;;;5.35;0.75;;;13.30;99.90;;;;;;5054324;28;20108;-74
2021/05/17 09:05:18;;;;;;;2.17;0.40;;;13.90;99.90;;;;;;5053739;28;20018;-72
2021/05/17 09:07:47;;;;;;;1.50;0.60;;;13.60;99.90;;;;;;5053621;28;20025;-73
2021/05/17 09:10:15;;;;;;;4.95;1.35;;;13.20;99.90;;;;;;5054416;28;20426;-74
2021/05/17 09:12:58;;;;;;;2.42;0.65;;;13.30;99.90;;;;;;5052729;28;20083;-75
2021/05/17 09:15:41;;;;;;;4.32;0.68;;;13.20;99.90;;;;;;5053085;28;20037;-74
2021/05/17 09:18:13;;;;;;;2.50;0.50;;;13.50;99.90;;;;;;5055001;28;20024;-73
2021/05/17 09:20:40;;;;;;;1.85;0.60;;;13.30;99.90;;;;;;5035433;28;20032;-72
2021/05/17 09:23:27;;;;;;;1.48;0.77;;;13.70;99.90;;;;;;5051182;28;20055;-73
2021/05/17 09:26:02;;;;;;;1.45;0.73;;;13.80;99.90;;;;;;5020616;28;20021;-74
2021/05/17 09:28:36;;;;;;;2.53;0.60;;;14.40;99.90;;;;;;5052516;28;20484;-73
2021/05/17 09:31:07;;;;;;;3.38;0.55;;;14.60;99.90;;;;;;5038496;28;20090;-74
2021/05/17 09:33:42;;;;;;;2.28;0.50;;;14.40;99.90;;;;;;5034372;28;20486;-71
2021/05/17 09:36:29;;;;;;;1.52;0.45;;;13.90;99.90;;;;;;5052123;28;20554;-71
2021/05/17 09:39:06;;;;;;;2.47;0.60;;;13.80;99.90;;;;;;5051756;28;20033;-72
2021/05/17 09:41:55;;;;;;;3.40;0.70;;;14.40;99.90;;;;;;5051781;28;20025;-72
2021/05/17 09:44:23;;;;;;;4.15;0.55;;;14.50;99.90;;;;;;5033280;28;20052;-72
2021/05/17 09:47:08;;;;;;;1.10;0.60;;;15.50;99.90;;;;;;5051656;28;20045;-71
2021/05/17 09:49:50;;;;;;;1.95;0.70;;;16.00;99.90;;;;;;5052412;28;20021;-71
2021/05/17 09:52:21;;;;;;;2.28;0.77;;;15.90;99.90;;;;;;5051780;28;20479;-71
2021/05/17 09:54:56;;;;;;;1.88;0.40;;;16.00;99.90;;;;;;5050190;28;20446;-72
2021/05/17 09:57:34;;;;;;;3.53;0.70;;;15.70;99.90;;;;;;5014429;28;20056;-73
2021/05/17 10:00:21;;;;;;;2.75;0.73;;;16.30;99.90;;;;;;5031314;28;20621;-71
2021/05/17 10:02:53;;;;;;;1.30;0.52;;;17.30;99.90;;;;;;5030926;28;20052;-72
2021/05/17 10:05:24;;;;;;;2.28;0.50;;;16.00;99.90;;;;;;5033835;28;20013;-71
2021/05/17 10:08:17;;;;;;;3.13;0.55;;;15.20;99.90;;;;;;5050632;28;20057;-71
2021/05/17 10:10:43;;;;;;;1.20;0.40;;;14.90;99.90;;;;;;5046148;28;20033;-70
2021/05/17 10:13:09;;;;;;;3.00;0.75;;;14.20;99.90;;;;;;5050240;28;20055;-71
2021/05/17 10:15:36;;;;;;;2.83;0.57;;;14.30;99.90;;;;;;5051468;28;20028;-72
2021/05/17 10:18:03;;;;;;;2.80;0.40;;;13.80;99.90;;;;;;5051404;28;20025;-72
2021/05/17 10:20:29;;;;;;;1.17;0.40;;;13.50;99.90;;;;;;5051507;28;20060;-72
2021/05/17 10:22:57;;;;;;;2.60;0.40;;;14.40;99.90;;;;;;5031432;28;20037;-72
2021/05/17 10:25:24;;;;;;;1.88;0.28;;;15.60;99.90;;;;;;5037877;28;20025;-70
2021/05/17 10:27:51;;;;;;;2.40;0.40;;;15.70;99.90;;;;;;5032803;28;20487;-71
2021/05/17 10:30:31;;;;;;;8.18;0.30;;;15.50;99.90;;;;;;5050567;28;20063;-71
2021/05/17 10:33:02;;;;;;;3.75;0.45;;;15.10;99.90;;;;;;5031966;28;20059;-72
2021/05/17 10:35:33;;;;;;;2.13;0.63;;;15.50;99.90;;;;;;5050406;28;20051;-71
2021/05/17 10:38:26;;;;;;;2.65;0.25;;;14.60;99.90;;;;;;5050835;28;20043;-74
2021/05/17 10:40:57;;;;;;;;;;;14.80;99.90;;;;;;5035095;28;20082;-72
2021/05/17 10:43:54;;;;;;;0.75;0.35;;;14.70;99.90;;;;;;5033641;28;19912;-72
2021/05/17 10:46:38;;;;;;;1.52;0.30;;;14.50;99.90;;;;;;5029968;28;20018;-71
2021/05/17 10:49:18;;;;;;;2.55;0.60;;;14.10;99.90;;;;;;5031117;28;20053;-71
2021/05/17 10:51:44;;;;;;;0.60;0.40;;;14.00;99.90;;;;;;5031634;28;20101;-71
2021/05/17 10:54:30;;;;;;;18.42;1.20;;;14.00;99.90;;;;;;5030570;28;20112;-71
2021/05/17 10:57:03;;;;;;;19.38;1.20;;;14.00;99.90;;;;;;5032687;28;20091;-71
2021/05/17 11:02:16;;;;;;;5.65;0.50;;;14.40;99.90;;;;;;5051967;28;20094;-71
2021/05/17 11:04:48;;;;;;;1.52;0.50;;;14.60;99.90;;;;;;5049965;28;20479;-71
2021/05/17 11:07:24;;;;;;;9.35;1.90;;;14.50;99.90;;;;;;5051223;28;20052;-70
2021/05/17 11:09:58;;;;;;;13.75;3.10;;;14.80;99.90;;;;;;5050505;28;20068;-70
2021/05/17 11:12:26;;;;;;;39.28;4.00;;;14.80;99.90;;;;;;5032637;28;20408;-71
2021/05/17 11:15:05;;;;;;;5.20;0.70;;;15.10;99.90;;;;;;5049806;28;20108;-71
2021/05/17 11:17:51;;;;;;;2.58;0.50;;;15.10;99.90;;;;;;5050605;28;20483;-71
2021/05/17 11:20:43;;;;;;;0.40;0.20;;;14.80;99.90;;;;;;5051892;28;20037;-70
2021/05/17 11:23:41;;;;;;;3.67;0.20;;;14.40;99.90;;;;;;5053299;28;20040;-71
2021/05/17 11:26:16;;;;;;;1.33;0.30;;;14.80;99.90;;;;;;5053722;28;20082;-70
2021/05/17 11:28:45;;;;;;;3.22;0.30;;;15.00;99.90;;;;;;5053989;28;20455;-71
2021/05/17 11:33:53;;;;;;;1.05;0.20;;;15.90;99.90;;;;;;5053238;28;20079;-73
2021/05/17 11:36:20;;;;;;;3.92;1.60;;;17.50;99.90;;;;;;5053282;28;20127;-73
2021/05/17 11:39:08;;;;;;;1.35;0.88;;;18.70;99.90;;;;;;5052831;28;20047;-73
2021/05/17 11:42:03;;;;;;;0.47;0.30;;;19.20;99.90;;;;;;5036175;28;20017;-74
2021/05/17 11:44:53;;;;;;;3.20;0.57;;;19.50;99.90;;;;;;5052639;28;20025;-73
2021/05/17 11:47:27;;;;;;;1.40;0.55;;;19.60;99.90;;;;;;5052595;28;20025;-75
2021/05/17 11:49:54;;;;;;;2.35;0.30;;;19.70;96.90;;;;;;5052016;28;20562;-72
2021/05/17 11:52:28;;;;;;;4.00;0.50;;;19.00;99.70;;;;;;5052069;28;20494;-75
2021/05/17 11:55:00;;;;;;;1.85;0.40;;;18.50;99.60;;;;;;5034552;28;20033;-73
2021/05/17 11:57:36;;;;;;;0.10;0.10;;;18.50;99.90;;;;;;5035526;28;20050;-71
2021/05/17 12:00:08;;;;;;;0.32;0.20;;;17.00;99.70;;;;;;5048059;28;20068;-72
2021/05/17 12:02:34;;;;;;;1.65;0.10;;;15.60;99.90;;;;;;5051958;28;20028;-74
2021/05/17 12:05:00;;;;;;;0.10;0.10;;;15.20;99.90;;;;;;5052820;28;20513;-71
2021/05/17 12:07:26;;;;;;;3.85;0.50;;;14.80;99.90;;;;;;5053531;28;20021;-70
2021/05/17 12:09:56;;;;;;;4.38;0.40;;;15.40;99.90;;;;;;5053627;28;20099;-71
2021/05/17 12:12:24;;;;;;;2.40;0.65;;;15.70;99.90;;;;;;5053137;28;20483;-73
2021/05/17 12:15:02;;;;;;;0.13;0.10;;;16.30;99.90;;;;;;5051878;28;20048;-70
2021/05/17 12:17:32;;;;;;;2.17;0.30;;;15.80;99.90;;;;;;5053763;28;20549;-70
2021/05/17 12:20:05;;;;;;;6.03;0.30;;;15.50;99.90;;;;;;5053940;28;20035;-71
2021/05/17 12:22:35;;;;;;;1.95;0.28;;;15.60;99.90;;;;;;5052691;28;20431;-70
2021/05/17 12:25:06;;;;;;;0.63;0.40;;;15.50;99.90;;;;;;5052067;28;20075;-69
2021/05/17 12:27:32;;;;;;;4.90;0.30;;;15.10;99.90;;;;;;5054233;28;20097;-70
2021/05/17 12:30:10;;;;;;;0.30;0.22;;;15.50;99.90;;;;;;5053467;28;20049;-69
2021/05/17 12:32:41;;;;;;;0.40;0.30;;;15.20;99.90;;;;;;5051792;28;20031;-71
2021/05/17 12:35:24;;;;;;;3.28;0.40;;;15.40;99.90;;;;;;5035208;28;20032;-72
2021/05/17 12:37:52;;;;;;;0.60;0.30;;;15.70;99.90;;;;;;5042593;28;20033;-70
2021/05/17 12:40:23;;;;;;;1.58;0.38;;;15.40;99.90;;;;;;5032919;28;20479;-70
2021/05/17 12:43:02;;;;;;;1.90;0.40;;;15.90;99.90;;;;;;5032326;28;20033;-71
2021/05/17 12:45:29;;;;;;;1.55;0.40;;;17.00;99.90;;;;;;5014662;28;20380;-69
2021/05/17 12:47:54;;;;;;;0.60;0.35;;;16.50;99.90;;;;;;5032968;28;20076;-71
2021/05/17 12:50:20;;;;;;;2.60;0.45;;;16.20;99.90;;;;;;5015600;28;20049;-73
2021/05/17 12:52:47;;;;;;;2.08;0.35;;;15.90;99.90;;;;;;5032303;28;20411;-72
2021/05/17 12:55:13;;;;;;;5.07;0.43;;;15.90;99.90;;;;;;5032809;28;20029;-73
2021/05/17 12:57:51;;;;;;;1.15;0.30;;;16.00;99.90;;;;;;5033400;28;20025;-71
2021/05/17 13:00:39;;;;;;;1.13;0.40;;;16.10;99.90;;;;;;5040608;28;20032;-72
2021/05/17 13:03:13;;;;;;;2.70;0.60;;;15.70;99.90;;;;;;5050832;28;20039;-71
2021/05/17 13:06:00;;;;;;;1.00;0.35;;;15.40;99.90;;;;;;5052817;28;20071;-73
2021/05/17 13:08:35;;;;;;;0.85;0.45;;;15.80;99.90;;;;;;5052375;28;20079;-74
2021/05/17 13:11:01;;;;;;;1.05;0.55;;;15.80;99.90;;;;;;5052775;28;20021;-71
2021/05/17 13:13:57;;;;;;;0.68;0.40;;;16.20;99.90;;;;;;5051931;28;20021;-71
2021/05/17 13:16:28;;;;;;;4.13;0.30;;;16.50;99.90;;;;;;5039219;28;20063;-70
2021/05/17 13:19:31;;;;;;;2.28;0.30;;;15.80;99.90;;;;;;5052521;28;20025;-71
2021/05/17 13:30:58;;;;;;;0.38;0.20;;;16.70;99.90;;;;;;5052230;28;20021;-71
2021/05/17 13:33:43;;;;;;;2.08;0.22;;;17.80;99.90;;;;;;5051161;28;20024;-71
2021/05/17 13:36:14;;;;;;;1.77;0.30;;;16.60;99.90;;;;;;5052044;28;20035;-70
2021/05/17 13:38:47;;;;;;;0.85;0.30;;;15.90;99.90;;;;;;5051498;28;20063;-70